CDT,Max TemperatureF,Mean TemperatureF,Min TemperatureF,Max Dew PointF,MeanDew PointF,Min DewpointF,Max Humidity, Mean Humidity, Min Humidity, Max Sea Level PressureIn, Mean Sea Level PressureIn, Min Sea Level PressureIn, Max VisibilityMiles, Mean VisibilityMiles, Min VisibilityMiles, Max Wind SpeedMPH, Mean Wind SpeedMPH, Max Gust SpeedMPH,PrecipitationIn, CloudCover, Events, WindDirDegrees
2013-6-1,91,83,75,75,73,73,94,78,57,29.95,29.91,29.84,10,10,10,10,6,16,0.00,5,Rain,177
2013-6-2,84,76,69,74,70,68,94,82,61,30.02,29.94,29.89,10,8,1,10,3,21,1.61,5,Rain-Thunderstorm,356
2013-6-3,87,78,69,70,69,67,94,79,53,29.97,29.93,29.86,10,9,1,8,2,,0.00,4,,54
2013-6-4,93,80,66,75,69,64,91,71,45,29.95,29.90,29.83,10,9,3,5,1,,0.00,1,,53
2013-6-5,93,82,71,77,72,70,94,81,47,29.93,29.87,29.77,10,6,2,7,1,,0.00,1,Thunderstorm,130
2013-6-6,84,77,73,75,71,66,94,87,60,29.91,29.83,29.77,10,10,6,10,4,,0.27,5,Rain-Thunderstorm,265
2013-6-7,86,76,68,71,68,65,94,83,53,29.91,29.87,29.82,10,8,1,8,2,,0.02,5,Rain,303
2013-6-8,88,77,66,69,66,64,94,82,45,29.95,29.91,29.88,10,5,0,8,1,,0.00,2,Fog-Thunderstorm,150
2013-6-9,,,,,,,,,,,,,,,,,,,,,,
2013-6-10,,,,,,,,,,,,,,,,,,,,,,
2013-6-11,93,86,77,78,75,72,90,73,50,30.04,30.01,29.99,10,10,8,7,3,,0.00,0,,185
2013-6-12,93,83,73,77,73,71,100,83,50,30.09,30.05,29.99,10,6,0,9,1,,0.00,1,Fog,207
2013-6-13,96,84,73,77,73,72,94,78,49,30.06,30.00,29.90,10,8,1,10,2,,0.00,1,,265
2013-6-14,96,82,71,78,74,67,94,72,54,29.97,29.93,29.89,10,9,6,10,3,16,0.00,2,,359
2013-6-15,82,72,66,68,66,64,93,84,58,30.02,29.98,29.93,10,8,4,7,2,,0.00,0,,94
2013-6-16,,,,,,,,,,30.04,29.99,29.95,,,,,,,0.00,,,-1
2013-6-17,93,86,78,77,73,68,87,65,44,30.01,29.95,29.90,10,10,10,12,8,20,0.00,3,,209
2013-6-18,88,82,75,76,74,72,94,85,65,30.02,29.97,29.89,10,8,1,9,3,,0.48,5,Rain-Thunderstorm,252
2013-6-19,73,72,71,72,71,70,97,94,91,30.04,30.01,29.96,8,3,1,0,0,,0.00,0,,-1
2013-6-20,93,80,69,79,71,66,94,85,52,30.11,30.04,30.01,10,6,1,6,0,,0.04,3,Rain-Thunderstorm,47
2013-6-21,95,82,70,75,71,68,94,76,50,30.12,30.08,30.04,10,9,5,8,1,,0.00,1,Thunderstorm,147
2013-6-22,93,80,69,77,70,66,97,81,48,30.10,30.04,29.98,10,6,1,7,1,,0.00,1,,146
2013-6-23,93,80,69,75,71,68,94,80,48,30.07,30.02,29.98,10,6,0,8,1,,0.00,0,Fog,152
2013-6-24,93,83,73,76,73,70,94,81,47,30.12,30.07,30.02,10,7,1,18,3,30,0.30,2,Rain-Thunderstorm,218
2013-6-25,93,80,69,76,72,68,94,78,50,30.08,30.05,29.97,10,7,0,9,2,,0.01,1,Fog,192
2013-6-26,95,82,71,77,73,70,94,74,49,30.05,29.99,29.94,10,9,2,10,3,,0.00,1,,208
2013-6-27,95,83,71,77,72,68,94,77,43,30.03,29.98,29.92,10,8,0,12,3,,0.00,0,Fog,239
2013-6-28,95,83,73,76,73,72,94,72,49,29.95,29.87,29.77,10,10,6,13,4,,0.00,0,,254
2013-6-29,98,86,72,76,72,66,94,66,37,29.82,29.77,29.71,10,10,7,12,4,23,0.00,1,Thunderstorm,344
2013-6-30,93,78,66,68,63,56,94,65,30,29.84,29.79,29.75,10,8,1,10,2,,0.00,1,,322